Snow/Ice From: 24-10-2018 05:00 Until: 09:00 warning for: Snow/Ice Level: Yellow info button
suomi:
Liikennesää: Ajokeli muuttuu huonoksi aamulla tienpintojen jäätymisen vuoksi.

svenska:
Trafikvädret: Väglaget blir dåligt på morgonen p.g.a. tillfrysning av vägytor.

english:
Traffic weather warning: Bad road conditions are expected in the morning because of ice-covered roads. 


Thunder radar more information blitzortung!


Löydät sääaseman tiedot myös:

European Weather Network

Finland Weather Exchange

Weather Underground

AWEKAS



Weather Underground säähistoriasivu

Päivittäin yhteenveto Tou 19, 2017 Yksiköt:  Metriset    Englantilaiset   Molemmat
« Edellinen Päivä
Seuraava Päivä »
Päivittäin Viikoittain Kuukausittain Vuosittain Mukautettu
  Korkea: Matala: Keskiarvo:
Lämpötila: -17.8 °C 11.4 °C 14.8 °C
Kastepiste: -17.8 °C 9.4 °C 11.1 °C
Kosteus: Humidity % 62 % 78 %
Tuulen nopeus: 0 km/h 0 km/h 0 km/h
Tuulenpuuska: 0 km/h - -
Tuuli:- - North
Ilmanpaine: 0 hPa 1007.7 hPa -
Sade: 0 mm    
Historical Graphs
 
 
Taulukkotiedot Tou 19, 2017
Aika Lämpötila Kastepiste Ilmanpaine Tuuli Tuulen nopeus Tuulenpuuska Kosteus Sademäärä (tunneittain)
-17.8 °C -17.8 °C 0 hPa Calm     Humidity % 0 mm
00:00 11.4 °C 10.7 °C 1011.7 hPa Calm     95 % 0 mm
00:15 11.4 °C 10.7 °C 1011.7 hPa Calm     95 % 0 mm
00:30 11.4 °C 10.7 °C 1011.4 hPa Calm     95 % 0 mm
00:45 11.5 °C 10.6 °C 1011.1 hPa Calm     94 % 0 mm
01:00 11.6 °C 10.6 °C 1010.7 hPa Calm     94 % 0 mm
01:15 11.8 °C 10.8 °C 1010.7 hPa Calm     94 % 0 mm
01:30 12.1 °C 11 °C 1010.4 hPa Calm     93 % 0 mm
01:45 12.3 °C 11.2 °C 1010.4 hPa Calm     93 % 0 mm
02:00 12.7 °C 11.5 °C 1010 hPa Calm     92 % 0 mm
02:15 13 °C 11.4 °C 1010 hPa Calm     90 % 0 mm
02:30 13.2 °C 11.4 °C 1009.7 hPa Calm     89 % 0 mm
02:45 13.2 °C 11.2 °C 1009.4 hPa Calm     88 % 0 mm
03:00 13.1 °C 11.2 °C 1009.4 hPa Calm     88 % 0 mm
03:15 13.2 °C 11.2 °C 1009.4 hPa Calm     88 % 0 mm
03:30 13.1 °C 11.1 °C 1009 hPa Calm     88 % 0 mm
03:45 12.9 °C 11 °C 1009 hPa Calm     88 % 0 mm
04:15 12.7 °C 10.8 °C 1008.7 hPa Calm     88 % 0 mm
04:30 12.7 °C 10.9 °C 1008.7 hPa Calm     89 % 0 mm
04:45 12.6 °C 10.8 °C 1008.4 hPa Calm     89 % 0 mm
05:00 12.5 °C 10.7 °C 1008.4 hPa Calm     89 % 0 mm
05:15 12.6 °C 10.8 °C 1008.4 hPa Calm     89 % 0 mm
05:30 12.8 °C 10.7 °C 1008.4 hPa Calm     87 % 0 mm
05:45 12.9 °C 10.8 °C 1008 hPa Calm     87 % 0 mm
06:00 13.1 °C 10.8 °C 1008 hPa Calm     86 % 0 mm
06:15 13.1 °C 10.8 °C 1008 hPa Calm     86 % 0 mm
06:30 13.1 °C 10.8 °C 1008 hPa Calm     86 % 0 mm
06:45 13 °C 10.7 °C 1008 hPa Calm     86 % 0 mm
07:00 12.9 °C 10.7 °C 1008 hPa Calm     86 % 0 mm
07:15 12.9 °C 10.7 °C 1008.4 hPa Calm     86 % 0 mm
07:30 12.8 °C 10.7 °C 1008 hPa Calm     87 % 0 mm
07:45 12.7 °C 10.6 °C 1008 hPa Calm     87 % 0 mm
08:00 12.6 °C 10.5 °C 1008 hPa Calm     87 % 0 mm
08:15 12.7 °C 10.6 °C 1007.7 hPa Calm     87 % 0 mm
08:30 12.8 °C 10.5 °C 1007.7 hPa Calm     86 % 0 mm
08:45 13.2 °C 10.7 °C 1007.7 hPa Calm     85 % 0 mm
09:00 13.7 °C 10.7 °C 1008 hPa Calm     82 % 0 mm
09:15 14 °C 10.6 °C 1007.7 hPa Calm     80 % 0 mm
09:30 14.1 °C 10.7 °C 1007.7 hPa Calm     80 % 0 mm
09:45 13.9 °C 10.7 °C 1008 hPa Calm     81 % 0 mm
10:00 14.4 °C 11 °C 1008 hPa Calm     80 % 0 mm
10:15 14.8 °C 11 °C 1008.4 hPa Calm     78 % 0 mm
10:30 14.9 °C 10.9 °C 1008.4 hPa Calm     77 % 0 mm
10:45 14.6 °C 10.8 °C 1008.7 hPa Calm     78 % 0 mm
11:00 14.4 °C 10.7 °C 1008.7 hPa Calm     78 % 0 mm
11:15 14.4 °C 10.7 °C 1009 hPa Calm     78 % 0 mm
11:30 14.6 °C 10.8 °C 1008.7 hPa Calm     78 % 0 mm
11:45 14.9 °C 10.9 °C 1009 hPa Calm     77 % 0 mm
12:00 14.9 °C 11.1 °C 1009 hPa Calm     78 % 0 mm
12:15 15.5 °C 11.5 °C 1009 hPa Calm     77 % 0 mm
12:30 15.9 °C 11.5 °C 1009 hPa Calm     75 % 0 mm
12:45 16.1 °C 11.7 °C 1009 hPa Calm     75 % 0 mm
13:00 16.4 °C 12 °C 1009.4 hPa Calm     75 % 0 mm
13:15 17 °C 12.3 °C 1009.4 hPa Calm     74 % 0 mm
13:30 17.4 °C 12.7 °C 1009.4 hPa Calm     74 % 0 mm
13:45 17.2 °C 12.7 °C 1009.7 hPa Calm     75 % 0 mm
14:00 17.2 °C 13.1 °C 1009.7 hPa Calm     77 % 0 mm
14:15 17.4 °C 13.2 °C 1009.7 hPa Calm     76 % 0 mm
14:30 17.5 °C 13 °C 1009.7 hPa Calm     75 % 0 mm
14:45 17.5 °C 13 °C 1010 hPa Calm     75 % 0 mm
15:00 17.7 °C 13.2 °C 1010 hPa Calm     75 % 0 mm
15:15 17.9 °C 13.2 °C 1009.7 hPa Calm     74 % 0 mm
15:45 18.7 °C 13.1 °C 1010 hPa Calm     70 % 0 mm
16:00 18.8 °C 13.2 °C 1010 hPa Calm     70 % 0 mm
16:15 19.1 °C 13.3 °C 1010 hPa Calm     69 % 0 mm
16:30 19.3 °C 12.8 °C 1010 hPa Calm     66 % 0 mm
16:45 19.7 °C 12.7 °C 1010 hPa Calm     64 % 0 mm
17:00 19.7 °C 12.5 °C 1010 hPa Calm     63 % 0 mm
17:15 19.6 °C 12.3 °C 1010.4 hPa Calm     63 % 0 mm
17:30 19.3 °C 12.1 °C 1010.4 hPa Calm     63 % 0 mm
17:45 19.3 °C 12.5 °C 1010.4 hPa Calm     65 % 0 mm
18:00 19.2 °C 12.2 °C 1010.4 hPa Calm     64 % 0 mm
18:15 19.4 °C 12.2 °C 1010.4 hPa Calm     63 % 0 mm
18:30 18.7 °C 12 °C 1010.7 hPa Calm     65 % 0 mm
18:45 18.7 °C 11.2 °C 1010.4 hPa Calm     62 % 0 mm
19:00 18.8 °C 11.6 °C 1010.7 hPa Calm     63 % 0 mm
19:15 18.7 °C 11.7 °C 1010.7 hPa Calm     64 % 0 mm
19:30 18.2 °C 11.7 °C 1010.7 hPa Calm     66 % 0 mm
19:45 18.2 °C 11.9 °C 1010.7 hPa Calm     67 % 0 mm
20:00 18.1 °C 12.1 °C 1010.7 hPa Calm     68 % 0 mm
20:15 17.8 °C 12.1 °C 1011.1 hPa Calm     69 % 0 mm
20:30 17.4 °C 11.9 °C 1011.1 hPa Calm     70 % 0 mm
20:45 17.1 °C 12 °C 1011.1 hPa Calm     72 % 0 mm
21:00 16.8 °C 12 °C 1011.4 hPa Calm     73 % 0 mm
21:15 16.8 °C 11.9 °C 1011.4 hPa Calm     73 % 0 mm
21:30 16.5 °C 11.6 °C 1011.4 hPa Calm     73 % 0 mm
21:45 16.3 °C 11.4 °C 1011.4 hPa Calm     73 % 0 mm
22:00 15.8 °C 11.2 °C 1011.7 hPa Calm     74 % 0 mm
22:15 15.2 °C 11.2 °C 1011.7 hPa Calm     77 % 0 mm
22:30 14.6 °C 10.6 °C 1011.7 hPa Calm     77 % 0 mm
22:45 14 °C 10.2 °C 1012.1 hPa Calm     78 % 0 mm
23:00 13.4 °C 10.2 °C 1012.4 hPa Calm     81 % 0 mm
23:15 12.9 °C 9.9 °C 1012.4 hPa Calm     82 % 0 mm
23:30 12.4 °C 9.6 °C 1012.4 hPa Calm     83 % 0 mm
23:45 12.2 °C 9.4 °C 1012.4 hPa Calm     83 % 0 mm
Esan sääasema
Terveisin Weather Underground - 2.75 mb

Alkuperäinen skripti  Jim McMurry - jmcmurry@mwt.net Sovitettu myös templatelle  Wim van der Kuil - Leuven-Template.eu

Laitteet joita käytämme:

Sääasema
Davis VP2

Sääasemaohjelma
Cumulus

Sääaseman tietokone
Asus EeePC

Palveluntarjoaja
Suncomet

Davis VP2

Cumulus

Asus EeePC

Suncomet